sensor_id;sensor_type;location;lat;lon;timestamp;temperature;humidity
68257;DHT22;55069;51.568;4.656;2023-09-30T00:00:58;12.81;91.17
68257;DHT22;55069;51.568;4.656;2023-09-30T00:03:23;12.82;91.12
68257;DHT22;55069;51.568;4.656;2023-09-30T00:05:49;12.84;91.10
68257;DHT22;55069;51.568;4.656;2023-09-30T00:08:15;12.81;90.92
68257;DHT22;55069;51.568;4.656;2023-09-30T00:10:40;12.82;91.14
68257;DHT22;55069;51.568;4.656;2023-09-30T00:13:06;12.77;91.45
68257;DHT22;55069;51.568;4.656;2023-09-30T00:15:34;12.74;91.38
68257;DHT22;55069;51.568;4.656;2023-09-30T00:18:01;12.75;91.35
68257;DHT22;55069;51.568;4.656;2023-09-30T00:20:29;12.74;91.32
68257;DHT22;55069;51.568;4.656;2023-09-30T00:22:55;12.74;91.25
68257;DHT22;55069;51.568;4.656;2023-09-30T00:25:20;12.77;91.25
68257;DHT22;55069;51.568;4.656;2023-09-30T00:27:47;12.74;91.35
68257;DHT22;55069;51.568;4.656;2023-09-30T00:30:12;12.78;91.54
68257;DHT22;55069;51.568;4.656;2023-09-30T00:32:38;12.78;91.52
68257;DHT22;55069;51.568;4.656;2023-09-30T00:35:05;12.78;91.53
68257;DHT22;55069;51.568;4.656;2023-09-30T00:37:39;12.79;91.46
68257;DHT22;55069;51.568;4.656;2023-09-30T00:40:05;12.78;91.57
68257;DHT22;55069;51.568;4.656;2023-09-30T00:42:31;12.77;91.60
68257;DHT22;55069;51.568;4.656;2023-09-30T00:44:57;12.75;91.51
68257;DHT22;55069;51.568;4.656;2023-09-30T00:47:23;12.77;91.51
68257;DHT22;55069;51.568;4.656;2023-09-30T00:49:52;12.78;91.35
68257;DHT22;55069;51.568;4.656;2023-09-30T00:52:19;12.78;91.21
68257;DHT22;55069;51.568;4.656;2023-09-30T00:54:45;12.77;91.25
68257;DHT22;55069;51.568;4.656;2023-09-30T00:57:12;12.72;91.31
68257;DHT22;55069;51.568;4.656;2023-09-30T00:59:38;12.71;91.37
68257;DHT22;55069;51.568;4.656;2023-09-30T01:02:04;12.71;91.51
68257;DHT22;55069;51.568;4.656;2023-09-30T01:04:32;12.71;91.73
68257;DHT22;55069;51.568;4.656;2023-09-30T01:06:57;12.72;91.75
68257;DHT22;55069;51.568;4.656;2023-09-30T01:09:25;12.78;91.58
68257;DHT22;55069;51.568;4.656;2023-09-30T01:11:51;12.79;91.40
68257;DHT22;55069;51.568;4.656;2023-09-30T01:14:33;12.77;91.29
68257;DHT22;55069;51.568;4.656;2023-09-30T01:17:04;12.71;91.27
68257;DHT22;55069;51.568;4.656;2023-09-30T01:19:29;12.68;91.37
68257;DHT22;55069;51.568;4.656;2023-09-30T01:21:58;12.64;91.54
68257;DHT22;55069;51.568;4.656;2023-09-30T01:24:37;12.61;91.83
68257;DHT22;55069;51.568;4.656;2023-09-30T01:27:03;12.62;91.79
68257;DHT22;55069;51.568;4.656;2023-09-30T01:29:28;12.60;92.20
68257;DHT22;55069;51.568;4.656;2023-09-30T01:31:54;12.58;92.05
68257;DHT22;55069;51.568;4.656;2023-09-30T01:34:19;12.61;91.93
68257;DHT22;55069;51.568;4.656;2023-09-30T01:36:45;12.65;91.88
68257;DHT22;55069;51.568;4.656;2023-09-30T01:39:11;12.65;91.79
68257;DHT22;55069;51.568;4.656;2023-09-30T01:41:39;12.68;91.76
68257;DHT22;55069;51.568;4.656;2023-09-30T01:44:06;12.69;91.65
68257;DHT22;55069;51.568;4.656;2023-09-30T01:46:33;12.67;91.60
68257;DHT22;55069;51.568;4.656;2023-09-30T01:48:59;12.65;91.60
68257;DHT22;55069;51.568;4.656;2023-09-30T01:51:25;12.60;91.49
68257;DHT22;55069;51.568;4.656;2023-09-30T01:53:50;12.57;91.53
68257;DHT22;55069;51.568;4.656;2023-09-30T01:56:16;12.55;91.63
68257;DHT22;55069;51.568;4.656;2023-09-30T01:58:41;12.50;91.70
68257;DHT22;55069;51.568;4.656;2023-09-30T02:01:08;12.45;91.94
68257;DHT22;55069;51.568;4.656;2023-09-30T02:03:34;12.45;92.07
68257;DHT22;55069;51.568;4.656;2023-09-30T02:06:00;12.48;92.18
68257;DHT22;55069;51.568;4.656;2023-09-30T02:08:25;12.48;92.10
68257;DHT22;55069;51.568;4.656;2023-09-30T02:10:51;12.50;92.11
68257;DHT22;55069;51.568;4.656;2023-09-30T02:13:18;12.51;92.02
68257;DHT22;55069;51.568;4.656;2023-09-30T02:15:44;12.54;91.91
68257;DHT22;55069;51.568;4.656;2023-09-30T02:18:10;12.48;91.84
68257;DHT22;55069;51.568;4.656;2023-09-30T02:20:36;12.43;91.81
68257;DHT22;55069;51.568;4.656;2023-09-30T02:23:10;12.37;91.83
68257;DHT22;55069;51.568;4.656;2023-09-30T02:25:39;12.34;91.85
68257;DHT22;55069;51.568;4.656;2023-09-30T02:28:06;12.29;92.01
68257;DHT22;55069;51.568;4.656;2023-09-30T02:30:32;12.26;92.17
68257;DHT22;55069;51.568;4.656;2023-09-30T02:32:59;12.19;92.56
68257;DHT22;55069;51.568;4.656;2023-09-30T02:35:25;12.14;92.50
68257;DHT22;55069;51.568;4.656;2023-09-30T02:37:52;12.13;92.62
68257;DHT22;55069;51.568;4.656;2023-09-30T02:40:18;12.13;92.72
68257;DHT22;55069;51.568;4.656;2023-09-30T02:42:43;12.17;92.95
68257;DHT22;55069;51.568;4.656;2023-09-30T02:45:10;12.12;93.00
68257;DHT22;55069;51.568;4.656;2023-09-30T02:47:37;12.10;93.12
68257;DHT22;55069;51.568;4.656;2023-09-30T02:50:05;12.09;93.16
68257;DHT22;55069;51.568;4.656;2023-09-30T02:52:31;12.06;93.26
68257;DHT22;55069;51.568;4.656;2023-09-30T02:54:58;12.06;93.32
68257;DHT22;55069;51.568;4.656;2023-09-30T02:57:24;12.03;93.23
68257;DHT22;55069;51.568;4.656;2023-09-30T02:59:50;12.06;93.28
68257;DHT22;55069;51.568;4.656;2023-09-30T03:02:17;12.03;93.20
68257;DHT22;55069;51.568;4.656;2023-09-30T03:04:44;12.00;93.23
68257;DHT22;55069;51.568;4.656;2023-09-30T03:07:10;11.97;93.24
68257;DHT22;55069;51.568;4.656;2023-09-30T03:09:36;11.97;93.52
68257;DHT22;55069;51.568;4.656;2023-09-30T03:12:02;12.02;93.55
68257;DHT22;55069;51.568;4.656;2023-09-30T03:14:30;11.99;93.71
68257;DHT22;55069;51.568;4.656;2023-09-30T03:16:59;11.96;93.89
68257;DHT22;55069;51.568;4.656;2023-09-30T03:19:24;11.99;93.96
68257;DHT22;55069;51.568;4.656;2023-09-30T03:21:50;12.02;94.04
68257;DHT22;55069;51.568;4.656;2023-09-30T03:24:16;11.99;93.93
68257;DHT22;55069;51.568;4.656;2023-09-30T03:26:42;12.03;93.97
68257;DHT22;55069;51.568;4.656;2023-09-30T03:29:08;12.03;94.05
68257;DHT22;55069;51.568;4.656;2023-09-30T03:31:37;12.00;94.03
68257;DHT22;55069;51.568;4.656;2023-09-30T03:34:03;12.03;93.97
68257;DHT22;55069;51.568;4.656;2023-09-30T03:36:29;11.99;94.09
68257;DHT22;55069;51.568;4.656;2023-09-30T03:38:55;12.02;94.25
68257;DHT22;55069;51.568;4.656;2023-09-30T03:41:21;12.00;94.34
68257;DHT22;55069;51.568;4.656;2023-09-30T03:43:46;11.96;94.31
68257;DHT22;55069;51.568;4.656;2023-09-30T03:46:14;11.97;94.31
68257;DHT22;55069;51.568;4.656;2023-09-30T03:48:41;11.96;94.38
68257;DHT22;55069;51.568;4.656;2023-09-30T03:51:11;11.97;94.42
68257;DHT22;55069;51.568;4.656;2023-09-30T03:53:46;11.95;94.48
68257;DHT22;55069;51.568;4.656;2023-09-30T03:56:12;11.92;94.43
68257;DHT22;55069;51.568;4.656;2023-09-30T03:58:42;11.90;94.39
68257;DHT22;55069;51.568;4.656;2023-09-30T04:01:11;11.90;94.39
68257;DHT22;55069;51.568;4.656;2023-09-30T04:03:37;11.87;94.29
68257;DHT22;55069;51.568;4.656;2023-09-30T04:06:05;11.86;94.32
68257;DHT22;55069;51.568;4.656;2023-09-30T04:08:32;11.87;94.36
68257;DHT22;55069;51.568;4.656;2023-09-30T04:11:05;11.86;94.30
68257;DHT22;55069;51.568;4.656;2023-09-30T04:13:30;11.82;94.39
68257;DHT22;55069;51.568;4.656;2023-09-30T04:15:56;11.76;94.33
68257;DHT22;55069;51.568;4.656;2023-09-30T04:18:25;11.71;94.35
68257;DHT22;55069;51.568;4.656;2023-09-30T04:20:52;11.71;94.39
68257;DHT22;55069;51.568;4.656;2023-09-30T04:23:18;11.68;94.36
68257;DHT22;55069;51.568;4.656;2023-09-30T04:25:46;11.65;94.29
68257;DHT22;55069;51.568;4.656;2023-09-30T04:28:12;11.62;94.31
68257;DHT22;55069;51.568;4.656;2023-09-30T04:30:38;11.65;94.38
68257;DHT22;55069;51.568;4.656;2023-09-30T04:33:04;11.66;94.33
68257;DHT22;55069;51.568;4.656;2023-09-30T04:35:30;11.62;94.29
68257;DHT22;55069;51.568;4.656;2023-09-30T04:37:56;11.59;94.27
68257;DHT22;55069;51.568;4.656;2023-09-30T04:40:26;11.54;94.31
68257;DHT22;55069;51.568;4.656;2023-09-30T04:42:52;11.57;94.34
68257;DHT22;55069;51.568;4.656;2023-09-30T04:45:20;11.57;94.30
68257;DHT22;55069;51.568;4.656;2023-09-30T04:47:46;11.52;94.31
68257;DHT22;55069;51.568;4.656;2023-09-30T04:50:13;11.52;94.26
68257;DHT22;55069;51.568;4.656;2023-09-30T04:52:42;11.51;94.39
68257;DHT22;55069;51.568;4.656;2023-09-30T04:55:07;11.47;94.22
68257;DHT22;55069;51.568;4.656;2023-09-30T04:57:34;11.42;94.16
68257;DHT22;55069;51.568;4.656;2023-09-30T05:00:00;11.38;94.07
68257;DHT22;55069;51.568;4.656;2023-09-30T05:02:27;11.32;94.13
68257;DHT22;55069;51.568;4.656;2023-09-30T05:04:53;11.24;94.12
68257;DHT22;55069;51.568;4.656;2023-09-30T05:07:19;11.21;94.23
68257;DHT22;55069;51.568;4.656;2023-09-30T05:09:45;11.24;94.32
68257;DHT22;55069;51.568;4.656;2023-09-30T05:12:10;11.23;94.24
68257;DHT22;55069;51.568;4.656;2023-09-30T05:14:36;11.20;94.21
68257;DHT22;55069;51.568;4.656;2023-09-30T05:17:05;11.20;94.22
68257;DHT22;55069;51.568;4.656;2023-09-30T05:19:31;11.18;94.24
68257;DHT22;55069;51.568;4.656;2023-09-30T05:22:00;11.18;94.21
68257;DHT22;55069;51.568;4.656;2023-09-30T05:24:27;11.20;94.23
68257;DHT22;55069;51.568;4.656;2023-09-30T05:26:53;11.16;94.35
68257;DHT22;55069;51.568;4.656;2023-09-30T05:29:18;11.13;94.24
68257;DHT22;55069;51.568;4.656;2023-09-30T05:31:46;11.10;94.40
68257;DHT22;55069;51.568;4.656;2023-09-30T05:34:11;11.10;94.43
68257;DHT22;55069;51.568;4.656;2023-09-30T05:36:37;11.06;94.46
68257;DHT22;55069;51.568;4.656;2023-09-30T05:39:02;11.06;94.51
68257;DHT22;55069;51.568;4.656;2023-09-30T05:41:28;11.09;94.50
68257;DHT22;55069;51.568;4.656;2023-09-30T05:43:55;11.10;94.66
68257;DHT22;55069;51.568;4.656;2023-09-30T05:46:20;11.10;94.79
68257;DHT22;55069;51.568;4.656;2023-09-30T05:48:47;11.13;94.87
68257;DHT22;55069;51.568;4.656;2023-09-30T05:51:12;11.14;94.88
68257;DHT22;55069;51.568;4.656;2023-09-30T05:53:41;11.16;94.89
68257;DHT22;55069;51.568;4.656;2023-09-30T05:56:07;11.16;95.09
68257;DHT22;55069;51.568;4.656;2023-09-30T05:58:33;11.20;95.03
68257;DHT22;55069;51.568;4.656;2023-09-30T06:00:59;11.28;95.08
68257;DHT22;55069;51.568;4.656;2023-09-30T06:03:26;11.31;95.10
68257;DHT22;55069;51.568;4.656;2023-09-30T06:05:54;11.41;95.19
68257;DHT22;55069;51.568;4.656;2023-09-30T06:08:21;11.42;95.19
68257;DHT22;55069;51.568;4.656;2023-09-30T06:10:47;11.45;95.15
68257;DHT22;55069;51.568;4.656;2023-09-30T06:13:13;11.47;95.07
68257;DHT22;55069;51.568;4.656;2023-09-30T06:15:39;11.52;94.91
68257;DHT22;55069;51.568;4.656;2023-09-30T06:18:06;11.57;94.83
68257;DHT22;55069;51.568;4.656;2023-09-30T06:20:31;11.65;94.83
68257;DHT22;55069;51.568;4.656;2023-09-30T06:23:01;11.66;94.65
68257;DHT22;55069;51.568;4.656;2023-09-30T06:25:27;11.72;94.44
68257;DHT22;55069;51.568;4.656;2023-09-30T06:27:54;11.74;94.37
68257;DHT22;55069;51.568;4.656;2023-09-30T06:30:23;11.79;94.34
68257;DHT22;55069;51.568;4.656;2023-09-30T06:32:56;11.87;94.25
68257;DHT22;55069;51.568;4.656;2023-09-30T06:35:21;11.93;94.17
68257;DHT22;55069;51.568;4.656;2023-09-30T06:37:47;12.00;94.08
68257;DHT22;55069;51.568;4.656;2023-09-30T06:40:12;12.09;93.91
68257;DHT22;55069;51.568;4.656;2023-09-30T06:42:38;12.14;94.01
68257;DHT22;55069;51.568;4.656;2023-09-30T06:45:08;12.19;93.76
68257;DHT22;55069;51.568;4.656;2023-09-30T06:47:39;12.29;93.73
68257;DHT22;55069;51.568;4.656;2023-09-30T06:50:09;12.26;93.97
68257;DHT22;55069;51.568;4.656;2023-09-30T06:52:41;12.38;93.51
68257;DHT22;55069;51.568;4.656;2023-09-30T06:55:08;12.48;93.31
68257;DHT22;55069;51.568;4.656;2023-09-30T06:57:34;12.51;93.14
68257;DHT22;55069;51.568;4.656;2023-09-30T07:00:01;12.55;93.34
68257;DHT22;55069;51.568;4.656;2023-09-30T07:02:29;12.57;93.35
68257;DHT22;55069;51.568;4.656;2023-09-30T07:04:54;12.69;93.12
68257;DHT22;55069;51.568;4.656;2023-09-30T07:07:20;12.77;93.27
68257;DHT22;55069;51.568;4.656;2023-09-30T07:09:46;12.82;92.83
68257;DHT22;55069;51.568;4.656;2023-09-30T07:12:11;12.85;92.74
68257;DHT22;55069;51.568;4.656;2023-09-30T07:14:37;12.89;92.57
68257;DHT22;55069;51.568;4.656;2023-09-30T07:17:03;12.95;92.84
68257;DHT22;55069;51.568;4.656;2023-09-30T07:19:30;12.96;92.77
68257;DHT22;55069;51.568;4.656;2023-09-30T07:21:56;13.00;93.04
68257;DHT22;55069;51.568;4.656;2023-09-30T07:24:21;13.09;92.68
68257;DHT22;55069;51.568;4.656;2023-09-30T07:26:47;13.13;92.57
68257;DHT22;55069;51.568;4.656;2023-09-30T07:29:12;13.13;92.43
68257;DHT22;55069;51.568;4.656;2023-09-30T07:31:38;13.23;92.10
68257;DHT22;55069;51.568;4.656;2023-09-30T07:34:03;13.26;91.82
68257;DHT22;55069;51.568;4.656;2023-09-30T07:36:29;13.33;91.89
68257;DHT22;55069;51.568;4.656;2023-09-30T07:38:54;13.39;91.81
68257;DHT22;55069;51.568;4.656;2023-09-30T07:41:21;13.48;92.31
68257;DHT22;55069;51.568;4.656;2023-09-30T07:43:46;13.56;91.91
68257;DHT22;55069;51.568;4.656;2023-09-30T07:46:12;13.63;91.48
68257;DHT22;55069;51.568;4.656;2023-09-30T07:48:37;13.74;91.40
68257;DHT22;55069;51.568;4.656;2023-09-30T07:51:04;13.82;91.09
68257;DHT22;55069;51.568;4.656;2023-09-30T07:53:32;13.95;91.39
68257;DHT22;55069;51.568;4.656;2023-09-30T07:55:57;13.97;90.97
68257;DHT22;55069;51.568;4.656;2023-09-30T07:58:23;14.05;90.81
68257;DHT22;55069;51.568;4.656;2023-09-30T08:00:48;14.18;91.29
68257;DHT22;55069;51.568;4.656;2023-09-30T08:03:14;14.23;91.66
68257;DHT22;55069;51.568;4.656;2023-09-30T08:05:39;14.40;91.59
68257;DHT22;55069;51.568;4.656;2023-09-30T08:08:05;14.42;91.29
68257;DHT22;55069;51.568;4.656;2023-09-30T08:10:31;14.46;91.24
68257;DHT22;55069;51.568;4.656;2023-09-30T08:12:57;14.46;91.08
68257;DHT22;55069;51.568;4.656;2023-09-30T08:15:24;14.49;91.47
68257;DHT22;55069;51.568;4.656;2023-09-30T08:17:50;14.46;91.28
68257;DHT22;55069;51.568;4.656;2023-09-30T08:20:16;14.47;90.87
68257;DHT22;55069;51.568;4.656;2023-09-30T08:22:41;14.55;91.37
68257;DHT22;55069;51.568;4.656;2023-09-30T08:25:07;14.63;91.41
68257;DHT22;55069;51.568;4.656;2023-09-30T08:27:33;14.73;91.66
68257;DHT22;55069;51.568;4.656;2023-09-30T08:29:59;14.83;92.17
68257;DHT22;55069;51.568;4.656;2023-09-30T08:32:25;14.94;92.00
68257;DHT22;55069;51.568;4.656;2023-09-30T08:34:50;15.07;92.01
68257;DHT22;55069;51.568;4.656;2023-09-30T08:37:16;15.19;91.76
68257;DHT22;55069;51.568;4.656;2023-09-30T08:39:42;15.32;91.52
68257;DHT22;55069;51.568;4.656;2023-09-30T08:42:11;15.49;91.45
68257;DHT22;55069;51.568;4.656;2023-09-30T08:44:38;15.62;90.60
68257;DHT22;55069;51.568;4.656;2023-09-30T08:47:06;15.63;90.45
68257;DHT22;55069;51.568;4.656;2023-09-30T08:49:34;15.77;90.34
68257;DHT22;55069;51.568;4.656;2023-09-30T08:52:03;15.89;90.25
68257;DHT22;55069;51.568;4.656;2023-09-30T08:54:30;16.00;89.90
68257;DHT22;55069;51.568;4.656;2023-09-30T08:56:57;16.11;89.40
68257;DHT22;55069;51.568;4.656;2023-09-30T08:59:24;16.07;88.76
68257;DHT22;55069;51.568;4.656;2023-09-30T09:01:51;16.13;88.65
68257;DHT22;55069;51.568;4.656;2023-09-30T09:04:17;16.22;89.01
68257;DHT22;55069;51.568;4.656;2023-09-30T09:06:43;16.26;88.53
68257;DHT22;55069;51.568;4.656;2023-09-30T09:09:16;16.40;88.09
68257;DHT22;55069;51.568;4.656;2023-09-30T09:11:43;16.51;88.17
68257;DHT22;55069;51.568;4.656;2023-09-30T09:14:09;16.61;87.93
68257;DHT22;55069;51.568;4.656;2023-09-30T09:16:35;16.62;87.40
68257;DHT22;55069;51.568;4.656;2023-09-30T09:19:13;16.66;87.41
68257;DHT22;55069;51.568;4.656;2023-09-30T09:21:56;16.79;86.75
68257;DHT22;55069;51.568;4.656;2023-09-30T09:24:35;16.86;86.46
68257;DHT22;55069;51.568;4.656;2023-09-30T09:27:05;16.87;86.32
68257;DHT22;55069;51.568;4.656;2023-09-30T09:29:32;16.99;86.23
68257;DHT22;55069;51.568;4.656;2023-09-30T09:32:11;17.02;86.22
68257;DHT22;55069;51.568;4.656;2023-09-30T09:34:37;17.17;86.05
68257;DHT22;55069;51.568;4.656;2023-09-30T09:37:19;17.32;85.51
68257;DHT22;55069;51.568;4.656;2023-09-30T09:39:55;17.42;85.53
68257;DHT22;55069;51.568;4.656;2023-09-30T09:42:32;17.49;85.47
68257;DHT22;55069;51.568;4.656;2023-09-30T09:45:02;17.61;85.38
68257;DHT22;55069;51.568;4.656;2023-09-30T09:47:32;17.83;85.04
68257;DHT22;55069;51.568;4.656;2023-09-30T09:49:59;17.83;83.40
68257;DHT22;55069;51.568;4.656;2023-09-30T09:52:25;17.92;83.16
68257;DHT22;55069;51.568;4.656;2023-09-30T09:54:51;18.05;83.17
68257;DHT22;55069;51.568;4.656;2023-09-30T09:57:18;17.97;82.10
68257;DHT22;55069;51.568;4.656;2023-09-30T09:59:47;18.09;83.83
68257;DHT22;55069;51.568;4.656;2023-09-30T10:02:16;18.20;82.69
68257;DHT22;55069;51.568;4.656;2023-09-30T10:04:46;18.29;82.61
68257;DHT22;55069;51.568;4.656;2023-09-30T10:07:30;18.47;82.93
68257;DHT22;55069;51.568;4.656;2023-09-30T10:10:00;18.65;80.50
68257;DHT22;55069;51.568;4.656;2023-09-30T10:12:26;18.88;80.50
68257;DHT22;55069;51.568;4.656;2023-09-30T10:14:52;19.08;80.13
68257;DHT22;55069;51.568;4.656;2023-09-30T10:17:18;19.27;79.61
68257;DHT22;55069;51.568;4.656;2023-09-30T10:20:13;19.43;78.19
68257;DHT22;55069;51.568;4.656;2023-09-30T10:22:38;19.54;77.39
68257;DHT22;55069;51.568;4.656;2023-09-30T10:25:33;19.68;77.24
68257;DHT22;55069;51.568;4.656;2023-09-30T10:27:58;19.70;76.79
68257;DHT22;55069;51.568;4.656;2023-09-30T10:30:25;19.75;76.24
68257;DHT22;55069;51.568;4.656;2023-09-30T10:35:20;19.88;75.34
68257;DHT22;55069;51.568;4.656;2023-09-30T10:37:47;19.79;72.85
68257;DHT22;55069;51.568;4.656;2023-09-30T10:40:30;19.94;74.35
68257;DHT22;55069;51.568;4.656;2023-09-30T10:42:59;20.12;75.26
68257;DHT22;55069;51.568;4.656;2023-09-30T10:53:17;20.74;71.84
68257;DHT22;55069;51.568;4.656;2023-09-30T10:55:46;20.46;68.33
68257;DHT22;55069;51.568;4.656;2023-09-30T10:58:15;20.56;66.60
68257;DHT22;55069;51.568;4.656;2023-09-30T11:00:56;19.88;70.03
68257;DHT22;55069;51.568;4.656;2023-09-30T11:03:22;20.39;72.25
68257;DHT22;55069;51.568;4.656;2023-09-30T11:05:49;20.79;71.65
68257;DHT22;55069;51.568;4.656;2023-09-30T11:08:16;20.74;69.81
68257;DHT22;55069;51.568;4.656;2023-09-30T11:10:51;20.44;68.07
68257;DHT22;55069;51.568;4.656;2023-09-30T11:13:19;20.33;68.39
68257;DHT22;55069;51.568;4.656;2023-09-30T11:15:45;20.05;70.46
68257;DHT22;55069;51.568;4.656;2023-09-30T11:18:15;20.11;70.36
68257;DHT22;55069;51.568;4.656;2023-09-30T11:20:41;20.02;69.30
68257;DHT22;55069;51.568;4.656;2023-09-30T11:23:08;20.12;71.73
68257;DHT22;55069;51.568;4.656;2023-09-30T11:25:38;20.23;69.87
68257;DHT22;55069;51.568;4.656;2023-09-30T11:28:17;20.28;68.05
68257;DHT22;55069;51.568;4.656;2023-09-30T11:30:57;20.28;67.60
68257;DHT22;55069;51.568;4.656;2023-09-30T11:33:23;20.26;66.09
68257;DHT22;55069;51.568;4.656;2023-09-30T11:36:05;20.37;64.58
68257;DHT22;55069;51.568;4.656;2023-09-30T11:38:34;20.74;66.45
68257;DHT22;55069;51.568;4.656;2023-09-30T11:43:27;21.15;64.54
68257;DHT22;55069;51.568;4.656;2023-09-30T11:46:06;21.28;62.99
68257;DHT22;55069;51.568;4.656;2023-09-30T11:48:35;21.25;63.64
68257;DHT22;55069;51.568;4.656;2023-09-30T11:51:01;21.25;64.30
68257;DHT22;55069;51.568;4.656;2023-09-30T11:53:31;21.35;62.42
68257;DHT22;55069;51.568;4.656;2023-09-30T11:55:59;21.14;63.22
68257;DHT22;55069;51.568;4.656;2023-09-30T11:58:32;21.07;63.34
68257;DHT22;55069;51.568;4.656;2023-09-30T12:00:58;20.69;63.33
68257;DHT22;55069;51.568;4.656;2023-09-30T12:03:25;20.44;60.30
68257;DHT22;55069;51.568;4.656;2023-09-30T12:05:53;20.08;60.46
68257;DHT22;55069;51.568;4.656;2023-09-30T12:08:23;20.42;61.85
68257;DHT22;55069;51.568;4.656;2023-09-30T12:10:49;20.43;60.90
68257;DHT22;55069;51.568;4.656;2023-09-30T12:13:15;20.77;61.52
68257;DHT22;55069;51.568;4.656;2023-09-30T12:15:41;21.07;62.35
68257;DHT22;55069;51.568;4.656;2023-09-30T12:18:07;21.24;59.08
68257;DHT22;55069;51.568;4.656;2023-09-30T12:20:33;21.45;58.14
68257;DHT22;55069;51.568;4.656;2023-09-30T12:22:58;21.39;57.45
68257;DHT22;55069;51.568;4.656;2023-09-30T12:25:24;21.39;58.61
68257;DHT22;55069;51.568;4.656;2023-09-30T12:27:50;21.50;59.86
68257;DHT22;55069;51.568;4.656;2023-09-30T12:30:16;21.45;60.21
68257;DHT22;55069;51.568;4.656;2023-09-30T12:32:45;21.56;63.72
68257;DHT22;55069;51.568;4.656;2023-09-30T12:35:11;21.59;61.57
68257;DHT22;55069;51.568;4.656;2023-09-30T12:37:37;21.24;60.63
68257;DHT22;55069;51.568;4.656;2023-09-30T12:40:06;21.29;62.42
68257;DHT22;55069;51.568;4.656;2023-09-30T12:42:33;21.35;63.77
68257;DHT22;55069;51.568;4.656;2023-09-30T12:45:00;21.41;65.37
68257;DHT22;55069;51.568;4.656;2023-09-30T12:47:26;21.36;61.26
68257;DHT22;55069;51.568;4.656;2023-09-30T12:49:52;21.12;63.43
68257;DHT22;55069;51.568;4.656;2023-09-30T12:52:20;21.12;65.25
68257;DHT22;55069;51.568;4.656;2023-09-30T12:54:46;21.17;61.28
68257;DHT22;55069;51.568;4.656;2023-09-30T12:57:14;20.79;61.28
68257;DHT22;55069;51.568;4.656;2023-09-30T12:59:43;20.85;64.39
68257;DHT22;55069;51.568;4.656;2023-09-30T13:02:12;21.00;63.38
68257;DHT22;55069;51.568;4.656;2023-09-30T13:04:37;21.01;62.55
68257;DHT22;55069;51.568;4.656;2023-09-30T13:07:10;21.18;64.15
68257;DHT22;55069;51.568;4.656;2023-09-30T13:09:41;20.98;65.18
68257;DHT22;55069;51.568;4.656;2023-09-30T13:12:07;21.09;64.48
68257;DHT22;55069;51.568;4.656;2023-09-30T13:14:34;21.08;62.67
68257;DHT22;55069;51.568;4.656;2023-09-30T13:17:00;20.88;61.56
68257;DHT22;55069;51.568;4.656;2023-09-30T13:19:26;20.60;61.09
68257;DHT22;55069;51.568;4.656;2023-09-30T13:21:52;20.76;62.99
68257;DHT22;55069;51.568;4.656;2023-09-30T13:24:19;20.90;63.80
68257;DHT22;55069;51.568;4.656;2023-09-30T13:26:45;20.83;63.23
68257;DHT22;55069;51.568;4.656;2023-09-30T13:29:11;20.97;65.47
68257;DHT22;55069;51.568;4.656;2023-09-30T13:31:37;20.87;64.02
68257;DHT22;55069;51.568;4.656;2023-09-30T13:34:06;21.02;63.77
68257;DHT22;55069;51.568;4.656;2023-09-30T13:36:32;21.07;64.00
68257;DHT22;55069;51.568;4.656;2023-09-30T13:38:58;20.91;63.48
68257;DHT22;55069;51.568;4.656;2023-09-30T13:41:24;20.95;62.02
68257;DHT22;55069;51.568;4.656;2023-09-30T13:43:49;21.01;65.28
68257;DHT22;55069;51.568;4.656;2023-09-30T13:46:15;20.84;63.81
68257;DHT22;55069;51.568;4.656;2023-09-30T13:48:41;20.67;62.80
68257;DHT22;55069;51.568;4.656;2023-09-30T13:51:08;20.76;64.83
68257;DHT22;55069;51.568;4.656;2023-09-30T13:53:34;20.46;62.66
68257;DHT22;55069;51.568;4.656;2023-09-30T13:56:00;19.91;63.20
68257;DHT22;55069;51.568;4.656;2023-09-30T13:58:25;19.91;63.99
68257;DHT22;55069;51.568;4.656;2023-09-30T14:00:51;19.99;64.19
68257;DHT22;55069;51.568;4.656;2023-09-30T14:03:20;20.21;64.96
68257;DHT22;55069;51.568;4.656;2023-09-30T14:05:46;20.39;66.53
68257;DHT22;55069;51.568;4.656;2023-09-30T14:08:12;20.05;63.70
68257;DHT22;55069;51.568;4.656;2023-09-30T14:10:38;20.06;66.90
68257;DHT22;55069;51.568;4.656;2023-09-30T14:13:04;20.46;69.90
68257;DHT22;55069;51.568;4.656;2023-09-30T14:15:29;20.15;63.38
68257;DHT22;55069;51.568;4.656;2023-09-30T14:17:57;20.39;66.27
68257;DHT22;55069;51.568;4.656;2023-09-30T14:20:24;20.50;65.70
68257;DHT22;55069;51.568;4.656;2023-09-30T14:22:51;20.73;65.72
68257;DHT22;55069;51.568;4.656;2023-09-30T14:25:22;20.73;65.31
68257;DHT22;55069;51.568;4.656;2023-09-30T14:27:50;20.63;64.62
68257;DHT22;55069;51.568;4.656;2023-09-30T14:30:16;20.60;67.05
68257;DHT22;55069;51.568;4.656;2023-09-30T14:32:42;20.44;64.80
68257;DHT22;55069;51.568;4.656;2023-09-30T14:35:08;20.39;65.67
68257;DHT22;55069;51.568;4.656;2023-09-30T14:37:35;20.42;65.08
68257;DHT22;55069;51.568;4.656;2023-09-30T14:40:00;20.50;67.02
68257;DHT22;55069;51.568;4.656;2023-09-30T14:42:26;20.66;69.02
68257;DHT22;55069;51.568;4.656;2023-09-30T14:44:51;20.60;65.62
68257;DHT22;55069;51.568;4.656;2023-09-30T14:47:17;20.70;69.39
68257;DHT22;55069;51.568;4.656;2023-09-30T14:49:43;20.80;66.21
68257;DHT22;55069;51.568;4.656;2023-09-30T14:52:09;20.83;66.76
68257;DHT22;55069;51.568;4.656;2023-09-30T14:54:35;20.26;64.19
68257;DHT22;55069;51.568;4.656;2023-09-30T14:57:00;19.96;64.67
68257;DHT22;55069;51.568;4.656;2023-09-30T14:59:26;19.88;65.21
68257;DHT22;55069;51.568;4.656;2023-09-30T15:01:52;19.74;66.24
68257;DHT22;55069;51.568;4.656;2023-09-30T15:04:18;19.92;68.06
68257;DHT22;55069;51.568;4.656;2023-09-30T15:06:44;19.98;65.91
68257;DHT22;55069;51.568;4.656;2023-09-30T15:09:11;20.05;67.23
68257;DHT22;55069;51.568;4.656;2023-09-30T15:11:37;19.91;66.31
68257;DHT22;55069;51.568;4.656;2023-09-30T15:14:03;20.01;67.12
68257;DHT22;55069;51.568;4.656;2023-09-30T15:16:30;20.11;68.68
68257;DHT22;55069;51.568;4.656;2023-09-30T15:18:56;20.22;66.98
68257;DHT22;55069;51.568;4.656;2023-09-30T15:21:22;20.29;69.00
68257;DHT22;55069;51.568;4.656;2023-09-30T15:23:49;20.21;65.21
68257;DHT22;55069;51.568;4.656;2023-09-30T15:26:15;20.16;67.85
68257;DHT22;55069;51.568;4.656;2023-09-30T15:28:41;20.11;68.24
68257;DHT22;55069;51.568;4.656;2023-09-30T15:31:07;20.18;68.02
68257;DHT22;55069;51.568;4.656;2023-09-30T15:33:34;20.18;66.93
68257;DHT22;55069;51.568;4.656;2023-09-30T15:36:07;19.81;66.11
68257;DHT22;55069;51.568;4.656;2023-09-30T15:38:33;19.88;68.39
68257;DHT22;55069;51.568;4.656;2023-09-30T15:40:59;20.15;70.10
68257;DHT22;55069;51.568;4.656;2023-09-30T15:43:26;20.13;65.92